Flight Track Log - Related Links

Times and Time Zones

All times are in EDT time to prevent confusion due to time zone crossing. See the LXJ549 flight status page for this flight to view local times or setup timezone preferences in your user account.

Time Position Orientation Groundspeed Altitude Reporting Facility
EDT Latitude Longitude Course Direction KTS MPH feet Rate Location/Type
Sat 06:51:09 PM 47.5461 -122.3181 323° Northwest 165 190 1,300  Level Seattle Center
Sat 06:51:39 PM 47.5683 -122.3428 323° Northwest 178 205 2,000 923 Climbing Seattle Center
Sat 06:52:40 PM 47.6142 -122.3956 322° Northwest 208 239 2,700 934 Climbing Seattle Center
Sat 06:53:41 PM 47.5967 -122.4781 253° West 230 265 3,900 2,164 Climbing Seattle Center
Sat 06:54:42 PM 47.5508 -122.5700 234° Southwest 259 298 7,100 3,393 Climbing Seattle Center
Sat 06:55:43 PM 47.4778 -122.5786 185° South 279 321 10,800 3,590 Climbing Seattle Center
Sat 06:56:44 PM 47.4003 -122.5433 163° South 301 346 14,400 2,902 Climbing Seattle Center
Sat 06:57:45 PM 47.2969 -122.5236 173° South 356 410 16,700 2,164 Climbing Seattle Center
Sat 06:58:46 PM 47.2011 -122.5061 173° South 386 444 18,800 2,705 Climbing Seattle Center
Sat 06:59:47 PM 47.1394 -122.3722 124° Southeast 414 476 22,200 3,393 Climbing Seattle Center
Sat 07:00:48 PM 47.0856 -122.2272 119° Southeast 410 472 25,700 3,590 Climbing Seattle Center
Sat 07:01:49 PM 47.0197 -122.0650 121° Southeast 396 456 29,500 2,902 Climbing Seattle Center
Sat 07:02:50 PM 46.9633 -121.9286 121° Southeast 395 455 31,600 1,672 Climbing Seattle Center
Sat 07:03:51 PM 46.9050 -121.7869 121° Southeast 409 471 32,900 1,279 Climbing Seattle Center
Sat 07:04:52 PM 46.8417 -121.6350 121° Southeast 437 503 34,200 1,377 Climbing Seattle Center
Sat 07:05:53 PM 46.7797 -121.4867 121° Southeast 449 517 35,700 1,525 Climbing Seattle Center
Sat 07:06:54 PM 46.7147 -121.3292 121° Southeast 453 521 37,300 1,525 Climbing Seattle Center
Sat 07:07:55 PM 46.6486 -121.1753 122° Southeast 451 519 38,800 1,180 Climbing Seattle Center
Sat 07:08:56 PM 46.5833 -121.0236 122° Southeast 443 510 39,700 689 Climbing Seattle Center
Sat 07:09:57 PM 46.5031 -120.8342 122° Southeast 455 524 40,200 541 Climbing Seattle Center
Sat 07:10:58 PM 46.4336 -120.6747 122° Southeast 464 534 40,800 393 Climbing Seattle Center
Sat 07:11:59 PM 46.3631 -120.5131 122° Southeast 473 544 41,000 98 Climbing Seattle Center
Sat 07:13:00 PM 46.2817 -120.3569 127° Southeast 483 556 41,000  Level Seattle Center
Sat 07:14:01 PM 46.1914 -120.2103 132° Southeast 488 562 41,000  Level Seattle Center
Sat 07:15:02 PM 46.1033 -120.0644 131° Southeast 485 558 41,000  Level Seattle Center
Sat 07:16:03 PM 46.0147 -119.9228 132° Southeast 477 549 41,000  Level Seattle Center
Sat 07:17:04 PM 45.9281 -119.7817 131° Southeast 474 545 41,000  Level Seattle Center
Sat 07:18:05 PM 45.8417 -119.6428 132° Southeast 468 539 41,000  Level Seattle Center
Sat 07:19:06 PM 45.7536 -119.5031 132° Southeast 469 540 41,000  Level Seattle Center
Sat 07:20:06 PM 45.6661 -119.3642 132° Southeast 470 541 41,000  Level Seattle Center
Sat 07:21:07 PM 45.5792 -119.2239 131° Southeast 470 541 41,000  Level Seattle Center
Sat 07:22:08 PM 45.4914 -119.0858 132° Southeast 469 540 41,000  Level Seattle Center
Sat 07:23:09 PM 45.4036 -118.9483 132° Southeast 469 540 41,000  Level Seattle Center
Sat 07:24:10 PM 45.3153 -118.8119 133° Southeast 467 537 41,000  Level Seattle Center
Sat 07:25:11 PM 45.2278 -118.6750 132° Southeast 467 537 41,000  Level Seattle Center
Sat 07:26:12 PM 45.1231 -118.5131 132° Southeast 465 535 41,000  Level Seattle Center
Sat 07:27:13 PM 45.0353 -118.3786 133° Southeast 464 534 41,000  Level Seattle Center
Sat 07:28:14 PM 44.9464 -118.2453 133° Southeast 465 535 41,000  Level Seattle Center
Sat 07:29:15 PM 44.8642 -118.1200 133° Southeast 464 534 41,000  Level Seattle Center
Sat 07:30:15 PM 44.7661 -117.9708 133° Southeast 464 534 41,000  Level Seattle Center
Sat 07:31:16 PM 44.6814 -117.8433 133° Southeast 465 535 41,000  Level Seattle Center
Sat 07:32:17 PM 44.5978 -117.7172 133° Southeast 463 533 41,000  Level Seattle Center
Sat 07:33:18 PM 44.5000 -117.5722 133° Southeast 460 529 41,000  Level Seattle Center
Sat 07:34:19 PM 44.4158 -117.4475 133° Southeast 461 531 41,000  Level Seattle Center
Sat 07:35:20 PM 44.3308 -117.3222 133° Southeast 463 533 41,000  Level Seattle Center
Sat 07:36:31 PM 44.2181 -117.1564 133° Southeast 458 527 41,000  Level Salt Lake Center
Sat 07:37:32 PM 44.1322 -117.0303 133° Southeast 467 537 41,000  Level Salt Lake Center
Sat 07:38:33 PM 44.0314 -116.8828 134° Southeast 470 541 41,000 -585 Level Salt Lake Center
Sat 07:39:35 PM 43.9494 -116.7628 133° Southeast 450 518 39,800 -1,561 Descending Salt Lake Center
Sat 07:40:36 PM 43.8553 -116.6267 134° Southeast 439 505 37,800 -1,902 Descending Salt Lake Center
Sat 07:41:38 PM 43.7719 -116.5081 134° Southeast 448 516 35,900 -1,854 Descending Salt Lake Center
Sat 07:42:39 PM 43.6886 -116.3889 134° Southeast 453 521 34,000 -2,066 Descending Salt Lake Center
Sat 07:43:40 PM 43.5972 -116.2381 130° Southeast 468 539 31,700 -2,049 Descending Salt Lake Center
Sat 07:44:42 PM 43.5608 -116.0669 106° East 490 564 29,800 -2,000 Descending Salt Lake Center
Sat 07:45:43 PM 43.5356 -115.8594 99° East 491 565 27,600 -2,016 Descending Salt Lake Center
Sat 07:46:44 PM 43.5153 -115.6853 99° East 483 556 25,700 -1,854 Descending Salt Lake Center
Sat 07:47:46 PM 43.4942 -115.5167 100° East 470 541 23,800 -2,049 Descending Salt Lake Center
Sat 07:48:47 PM 43.4706 -115.3258 100° East 455 524 21,500 -2,146 Descending Salt Lake Center
Sat 07:49:49 PM 43.4494 -115.1578 100° East 443 510 19,400 -2,000 Descending Salt Lake Center
Sat 07:50:50 PM 43.4281 -114.9875 100° East 433 498 17,400 -2,016 Descending Salt Lake Center
Sat 07:51:51 PM 43.4067 -114.8247 100° East 417 480 15,300 -1,220 Descending Salt Lake Center
Sat 07:52:53 PM 43.3886 -114.6811 100° East 403 464 14,900 -683 Descending Salt Lake Center
Sat 07:53:54 PM 43.3692 -114.5364 100° East 375 432 13,900 -878 Descending Salt Lake Center
Sat 07:54:56 PM 43.3536 -114.4231 101° East 284 327 13,100 -1,122 Descending Salt Lake Center
Sat 07:55:57 PM 43.3425 -114.3322 100° East 255 293 11,600 -1,082 Descending Salt Lake Center
Sat 07:56:58 PM 43.3292 -114.2439 102° East 251 289 10,900 -689 Descending Salt Lake Center
Sat 07:58:00 PM 43.4412 -114.2703 351° North  Level FlightAware Approximate
Sat 08:05:00 PM 43.5000 -114.2833 351° North  Level FlightAware Approximate
Sat 08:06:00 PM 43.5038 -114.2956 351° North  Level Estimated
Sat 08:07:00 PM 43.5038 -114.2956 351° North  Level Estimated
Sat 08:08:00 PM 43.5038 -114.2956 351° North  Level Estimated

Login

Don't have an account? Register now (free) for customized features, flight alerts, and more!